createdAt,value
2022-07-28T00:01:33.098Z,100.00
2022-07-28T00:06:34.915Z,100.00
2022-07-28T00:11:36.730Z,100.00
2022-07-28T00:16:52.545Z,100.00
2022-07-28T00:21:54.431Z,100.00
2022-07-28T00:26:56.317Z,100.00
2022-07-28T00:31:58.216Z,100.00
2022-07-28T00:37:00.062Z,100.00
2022-07-28T00:42:09.168Z,100.00
2022-07-28T00:47:11.953Z,100.00
2022-07-28T00:52:16.270Z,100.00
2022-07-28T00:57:18.175Z,100.00
2022-07-28T01:02:20.505Z,100.00
2022-07-28T01:08:00.817Z,100.00
2022-07-28T01:13:16.166Z,100.00
2022-07-28T01:18:26.137Z,100.00
2022-07-28T01:23:33.977Z,100.00
2022-07-28T01:28:50.992Z,100.00
2022-07-28T01:33:59.838Z,100.00
2022-07-28T01:39:02.373Z,100.00
2022-07-28T01:44:10.629Z,100.00
2022-07-28T01:49:14.575Z,100.00
2022-07-28T01:54:18.426Z,100.00
2022-07-28T01:59:23.543Z,100.00
2022-07-28T02:04:26.901Z,100.00
2022-07-28T02:09:30.542Z,100.00
2022-07-28T02:14:36.426Z,100.00
2022-07-28T02:19:42.646Z,100.00
2022-07-28T02:24:47.139Z,100.00
2022-07-28T02:29:52.588Z,100.00
2022-07-28T02:35:00.090Z,100.00
2022-07-28T02:40:03.421Z,100.00
2022-07-28T02:45:08.277Z,100.00
2022-07-28T02:50:11.286Z,100.00
2022-07-28T02:55:15.674Z,100.00
2022-07-28T03:00:18.391Z,100.00
2022-07-28T03:05:20.891Z,100.00
2022-07-28T03:10:32.984Z,100.00
2022-07-28T03:15:37.618Z,100.00
2022-07-28T03:20:39.437Z,100.00
2022-07-28T03:25:46.637Z,100.00
2022-07-28T03:30:56.026Z,100.00
2022-07-28T03:36:02.813Z,100.00
2022-07-28T03:41:09.620Z,100.00
2022-07-28T03:46:13.629Z,100.00
2022-07-28T03:51:15.621Z,100.00
2022-07-28T03:56:17.465Z,100.00
2022-07-28T04:01:19.368Z,100.00
2022-07-28T04:06:21.290Z,100.00
2022-07-28T04:11:23.331Z,100.00
2022-07-28T04:16:25.230Z,100.00
2022-07-28T04:21:27.432Z,100.00
2022-07-28T04:26:29.293Z,100.00
2022-07-28T04:31:31.461Z,100.00
2022-07-28T04:36:33.765Z,100.00
2022-07-28T04:41:36.459Z,100.00
2022-07-28T04:46:38.359Z,100.00
2022-07-28T04:51:40.244Z,100.00
2022-07-28T04:56:42.062Z,100.00
2022-07-28T05:01:43.986Z,100.00
2022-07-28T05:06:45.912Z,100.00
2022-07-28T05:11:48.062Z,100.00
2022-07-28T05:16:49.960Z,100.00
2022-07-28T05:21:51.833Z,100.00
2022-07-28T05:26:53.651Z,100.00
2022-07-28T05:31:55.641Z,100.00
2022-07-28T05:36:57.485Z,100.00
2022-07-28T05:42:02.363Z,100.00
2022-07-28T05:47:04.237Z,100.00
2022-07-28T05:52:06.231Z,100.00
2022-07-28T05:57:08.073Z,100.00
2022-07-28T06:02:17.343Z,100.00
2022-07-28T06:07:19.182Z,100.00
2022-07-28T06:12:21.058Z,100.00
2022-07-28T06:17:22.947Z,100.00
2022-07-28T06:22:24.822Z,100.00
2022-07-28T06:27:26.680Z,100.00
2022-07-28T06:32:28.535Z,100.00
2022-07-28T06:37:30.473Z,100.00
2022-07-28T06:42:32.291Z,100.00
2022-07-28T06:47:34.141Z,100.00
2022-07-28T06:52:37.137Z,100.00
2022-07-28T06:57:38.994Z,100.00
2022-07-28T07:02:41.989Z,100.00
2022-07-28T07:07:43.950Z,100.00
2022-07-28T07:12:46.029Z,100.00
2022-07-28T07:17:47.842Z,100.00
2022-07-28T07:22:50.381Z,100.00
2022-07-28T07:27:52.235Z,100.00
2022-07-28T07:32:54.169Z,100.00
2022-07-28T07:37:56.213Z,100.00
2022-07-28T07:42:58.015Z,100.00
2022-07-28T07:48:00.653Z,100.00
2022-07-28T07:53:02.481Z,100.00
2022-07-28T07:58:04.490Z,100.00
2022-07-28T08:03:11.191Z,100.00
2022-07-28T08:08:13.386Z,100.00
2022-07-28T08:13:15.211Z,100.00
2022-07-28T08:18:17.065Z,100.00
2022-07-28T08:23:24.319Z,100.00
2022-07-28T08:28:28.033Z,100.00
2022-07-28T08:33:30.357Z,100.00
2022-07-28T08:38:32.200Z,100.00
2022-07-28T08:43:38.254Z,100.00
2022-07-28T08:48:40.411Z,100.00
2022-07-28T08:53:43.543Z,99.23
2022-07-28T08:58:45.408Z,91.08
2022-07-28T09:03:47.820Z,83.46
2022-07-28T09:08:49.648Z,86.11
2022-07-28T09:13:54.028Z,85.64
2022-07-28T09:18:57.339Z,81.40
2022-07-28T09:24:00.713Z,78.74
2022-07-28T09:29:04.290Z,77.69
2022-07-28T09:34:08.417Z,78.15
2022-07-28T09:39:10.651Z,76.30
2022-07-28T09:44:20.048Z,75.87
2022-07-28T09:49:28.076Z,72.53
2022-07-28T09:54:30.676Z,71.71
2022-07-28T09:59:43.566Z,67.62
2022-07-28T10:04:52.959Z,66.23
2022-07-28T10:09:59.658Z,65.25
2022-07-28T10:15:34.400Z,63.76
2022-07-28T10:20:37.266Z,62.84
2022-07-28T10:25:40.662Z,65.21
2022-07-28T10:30:43.052Z,62.97
2022-07-28T10:35:55.234Z,55.17
2022-07-28T10:41:01.488Z,59.23
2022-07-28T10:46:07.362Z,57.00
2022-07-28T10:51:11.557Z,58.92
2022-07-28T10:56:18.875Z,55.14
2022-07-28T11:01:54.162Z,53.88
2022-07-28T11:07:10.653Z,53.38
2022-07-28T11:12:15.379Z,49.32
2022-07-28T11:17:24.654Z,47.66
2022-07-28T11:22:35.629Z,39.40
2022-07-28T11:27:40.931Z,34.25
2022-07-28T11:32:55.026Z,34.13
2022-07-28T11:38:03.243Z,32.52
2022-07-28T11:43:36.661Z,30.78
2022-07-28T11:48:43.654Z,30.90
2022-07-28T11:53:53.236Z,29.95
2022-07-28T11:58:58.833Z,31.62
2022-07-28T12:04:01.317Z,30.41
2022-07-28T12:09:05.039Z,29.42
2022-07-28T12:14:16.283Z,26.67
2022-07-28T12:19:20.011Z,26.41
2022-07-28T12:24:30.148Z,29.22
2022-07-28T12:29:35.732Z,30.56
2022-07-28T12:34:40.623Z,26.95
2022-07-28T12:39:44.346Z,27.44
2022-07-28T12:44:48.670Z,28.20
2022-07-28T12:50:14.715Z,28.96
2022-07-28T12:55:24.921Z,26.13
2022-07-28T13:00:34.198Z,25.56
2022-07-28T13:05:57.351Z,25.50
2022-07-28T13:10:59.447Z,25.38
2022-07-28T13:16:24.721Z,25.19
2022-07-28T13:21:57.432Z,25.44
2022-07-28T13:27:02.518Z,27.50
2022-07-28T13:32:04.740Z,26.09
2022-07-28T13:37:06.980Z,25.91
2022-07-28T13:42:10.382Z,26.60
2022-07-28T13:47:12.591Z,26.04
2022-07-28T13:52:33.141Z,25.88
2022-07-28T13:57:37.092Z,26.54
2022-07-28T14:02:39.059Z,25.64
2022-07-28T14:07:47.990Z,24.85
2022-07-28T14:12:50.480Z,24.83
2022-07-28T14:17:53.206Z,25.53
2022-07-28T14:22:55.189Z,27.83
2022-07-28T14:27:57.050Z,26.52
2022-07-28T14:32:59.005Z,25.92
2022-07-28T14:38:49.740Z,26.12
2022-07-28T14:43:27.183Z,27.02
2022-07-28T14:48:30.968Z,27.66
2022-07-28T14:53:32.937Z,25.15
2022-07-28T14:58:37.568Z,25.50
2022-07-28T15:03:43.549Z,26.35
2022-07-28T15:08:45.526Z,27.49
2022-07-28T15:13:47.359Z,26.40
2022-07-28T15:18:51.639Z,25.22
2022-07-28T15:23:53.658Z,27.46
2022-07-28T15:28:55.542Z,30.61
2022-07-28T15:33:58.553Z,32.00
2022-07-28T15:39:00.382Z,33.33
2022-07-28T15:44:02.175Z,35.97
2022-07-28T15:49:06.534Z,38.24
2022-07-28T15:54:08.745Z,39.71
2022-07-28T15:59:10.648Z,41.14
2022-07-28T16:04:13.235Z,41.52
2022-07-28T16:09:15.602Z,43.16
2022-07-28T16:14:18.074Z,43.05
2022-07-28T16:19:47.332Z,43.39
2022-07-28T16:24:42.236Z,42.66
2022-07-28T16:29:44.831Z,45.15
2022-07-28T16:34:48.190Z,44.30
2022-07-28T16:39:50.105Z,44.93
2022-07-28T16:44:51.986Z,44.53
2022-07-28T16:49:53.837Z,43.32
2022-07-28T16:54:56.201Z,44.10
2022-07-28T16:59:58.104Z,44.49
2022-07-28T17:05:00.097Z,44.46
2022-07-28T17:10:01.991Z,45.55
2022-07-28T17:15:05.270Z,45.38
2022-07-28T17:20:07.903Z,45.03
2022-07-28T17:25:28.633Z,46.51
2022-07-28T17:30:33.193Z,48.21
2022-07-28T17:35:36.081Z,47.70
2022-07-28T17:40:39.706Z,48.38
2022-07-28T17:45:41.760Z,47.99
2022-07-28T17:50:44.769Z,48.40
2022-07-28T17:56:00.550Z,50.26
2022-07-28T18:01:09.697Z,52.45
2022-07-28T18:06:13.169Z,51.33
2022-07-28T18:11:15.082Z,52.07
2022-07-28T18:16:16.975Z,52.97
2022-07-28T18:21:18.957Z,52.53
2022-07-28T18:26:20.773Z,52.77
2022-07-28T18:31:22.616Z,54.43
2022-07-28T18:36:24.483Z,54.74
2022-07-28T18:41:26.376Z,55.85
2022-07-28T18:46:28.876Z,55.41
2022-07-28T18:51:30.828Z,56.73
2022-07-28T18:56:32.636Z,58.36
2022-07-28T19:01:34.540Z,59.24
2022-07-28T19:06:36.660Z,60.33
2022-07-28T19:11:42.393Z,59.71
2022-07-28T19:16:47.359Z,63.45
2022-07-28T19:21:49.190Z,63.86
2022-07-28T19:26:51.624Z,73.08
2022-07-28T19:31:53.728Z,77.53
2022-07-28T19:36:57.879Z,77.77
2022-07-28T19:41:59.939Z,83.65
2022-07-28T19:47:01.848Z,84.87
2022-07-28T19:52:03.893Z,89.21
2022-07-28T19:57:05.909Z,91.29
2022-07-28T20:02:14.400Z,96.52
2022-07-28T20:07:16.375Z,100.00
2022-07-28T20:12:18.631Z,100.00
2022-07-28T20:17:37.408Z,100.00
2022-07-28T20:22:41.521Z,100.00
2022-07-28T20:27:44.348Z,100.00
2022-07-28T20:32:46.790Z,100.00
2022-07-28T20:37:50.808Z,100.00
2022-07-28T20:42:54.149Z,100.00
2022-07-28T20:47:56.097Z,100.00
2022-07-28T20:52:59.889Z,100.00
2022-07-28T20:58:13.137Z,100.00
2022-07-28T21:03:16.328Z,100.00
2022-07-28T21:08:18.547Z,100.00
2022-07-28T21:13:20.521Z,100.00
2022-07-28T21:18:22.407Z,100.00
2022-07-28T21:23:24.358Z,100.00
2022-07-28T21:28:44.664Z,100.00
2022-07-28T21:33:46.622Z,100.00
2022-07-28T21:38:48.578Z,100.00
2022-07-28T21:43:50.469Z,100.00
2022-07-28T21:48:53.383Z,100.00
2022-07-28T21:53:55.535Z,100.00
2022-07-28T21:58:57.395Z,100.00
2022-07-28T22:03:59.273Z,100.00
2022-07-28T22:09:01.157Z,100.00
2022-07-28T22:14:04.558Z,100.00
2022-07-28T22:19:06.410Z,100.00
2022-07-28T22:24:08.657Z,100.00
2022-07-28T22:29:11.124Z,100.00
2022-07-28T22:34:13.872Z,100.00
2022-07-28T22:39:15.943Z,100.00
2022-07-28T22:44:18.212Z,100.00
2022-07-28T22:49:27.026Z,100.00
2022-07-28T22:54:29.045Z,100.00
2022-07-28T22:59:31.220Z,100.00
2022-07-28T23:04:40.621Z,100.00
2022-07-28T23:09:43.089Z,100.00
2022-07-28T23:14:44.921Z,100.00
2022-07-28T23:19:46.767Z,100.00
2022-07-28T23:24:48.614Z,100.00
2022-07-28T23:29:50.438Z,100.00
2022-07-28T23:34:52.318Z,100.00
2022-07-28T23:39:54.860Z,100.00
2022-07-28T23:44:56.769Z,100.00
2022-07-28T23:49:58.643Z,100.00
2022-07-28T23:55:00.485Z,100.00
